Flight Track Log - Related Links

Times and Time Zones

All times are in EDT time to prevent confusion due to time zone crossing. See the ASQ5678 flight status page for this flight to view local times or setup timezone preferences in your user account.

Time Position Orientation Groundspeed Altitude Reporting Facility
EDT Latitude Longitude Course Direction KTS MPH feet Rate Location/Type
Mon 08:54:27 PM 40.6558 -74.1878 224° Southwest 176 203 1,200  Level New York Center
Mon 08:55:02 PM 40.6333 -74.2167 224° Southwest 207 238 1,900 1,579 Climbing New York TRACON
Mon 08:56:02 PM 40.6167 -74.3000 255° West 243 280 3,700 1,884 Climbing New York TRACON
Mon 08:57:03 PM 40.6167 -74.3833 270° West 247 284 5,700 2,020 Climbing New York TRACON
Mon 08:59:27 PM 40.7164 -74.5275 312° West 227 261 10,600 1,912 Climbing New York Center
Mon 09:00:27 PM 40.7089 -74.6283 264° West 247 284 12,200 1,736 Climbing New York Center
Mon 09:01:28 PM 40.7042 -74.7156 266° West 275 316 14,100 1,934 Climbing New York Center
Mon 09:02:28 PM 40.6983 -74.8222 266° West 275 316 16,100 1,587 Climbing New York Center
Mon 09:03:29 PM 40.6928 -74.9231 266° West 275 316 17,300 1,050 Climbing New York Center
Mon 09:04:28 PM 40.6869 -75.0294 266° West 280 322 18,200 966 Climbing New York Center
Mon 09:05:27 PM 40.6625 -75.1236 251° West 302 348 19,200 1,000 Climbing New York Center
Mon 09:06:28 PM 40.6150 -75.2300 240° Southwest 313 360 20,200 984 Climbing New York Center
Mon 09:07:29 PM 40.5669 -75.3389 240° Southwest 335 386 21,200 1,000 Climbing New York Center
Mon 09:08:28 PM 40.5125 -75.4528 238° Southwest 359 413 22,200 958 Climbing New York Center
Mon 09:09:28 PM 40.4600 -75.5664 239° Southwest 364 419 23,100 958 Climbing New York Center
Mon 09:10:27 PM 40.4072 -75.6853 240° Southwest 374 430 24,100 900 Climbing New York Center
Mon 09:11:28 PM 40.3522 -75.8014 238° Southwest 379 436 24,900 942 Climbing New York Center
Mon 09:12:28 PM 40.2883 -75.9328 238° Southwest 385 443 26,000 545 Climbing New York Center
Mon 09:13:29 PM 40.2286 -76.0561 238° Southwest 396 456 26,000  Level New York Center
Mon 09:14:28 PM 40.1753 -76.1744 239° Southwest 402 463 26,000  Level New York Center
Mon 09:15:29 PM 40.1017 -76.3206 237° Southwest 436 502 26,000  Level New York Center
Mon 09:16:27 PM 40.0389 -76.4594 239° Southwest 443 510 26,000  Level New York Center
Mon 09:17:27 PM 39.9758 -76.5978 239° Southwest 448 516 26,000  Level New York Center
Mon 09:19:16 PM 39.8569 -76.8536 239° Southwest 456 525 26,000  Level Washington Center
Mon 09:20:16 PM 39.7889 -76.9956 238° Southwest 456 525 26,000  Level Washington Center
Mon 09:21:17 PM 39.7225 -77.1372 239° Southwest 456 525 26,000  Level Washington Center
Mon 09:22:15 PM 39.6561 -77.2789 239° Southwest 461 531 26,000  Level Washington Center
Mon 09:23:17 PM 39.5894 -77.4200 239° Southwest 467 537 26,000  Level Washington Center
Mon 09:24:17 PM 39.5267 -77.5636 240° Southwest 467 537 26,000  Level Washington Center
Mon 09:25:15 PM 39.4844 -77.7186 251° West 460 529 26,000  Level Washington Center
Mon 09:26:15 PM 39.4419 -77.8731 250° West 460 529 26,000  Level Washington Center
Mon 09:28:00 PM 39.3971 -78.1088 250° West  Level FlightAware Approximate
Mon 09:29:15 PM 39.3222 -78.3281 249° West 460 529 26,000  Level Washington Center
Mon 09:31:17 PM 39.2397 -78.6333 251° West 460 529 26,000  Level Washington Center
Mon 09:32:15 PM 39.2003 -78.7842 251° West 460 529 26,000  Level Washington Center
Mon 09:33:16 PM 39.1567 -78.9350 250° West 460 529 26,000  Level Washington Center
Mon 09:34:16 PM 39.1169 -79.0831 251° West 460 529 26,000  Level Washington Center
Mon 09:35:00 PM 39.1296 -79.0180 249° West  Level FlightAware Approximate
Mon 09:35:18 PM 39.0750 -79.2361 251° West 455 524 26,000  Level Washington Center
Mon 09:36:15 PM 39.0328 -79.3864 250° West 455 524 26,000  Level Washington Center
Mon 09:37:15 PM 38.9906 -79.5311 249° West 450 518 26,000  Level Washington Center
Mon 09:38:15 PM 38.9478 -79.6889 251° West 457 526 26,000  Level Washington Center
Mon 09:39:17 PM 38.9050 -79.8439 251° West 465 535 26,000  Level Washington Center
Mon 09:40:13 PM 38.8614 -79.9739 247° West 452 520 26,000  Level Indianapolis Center
Mon 09:41:15 PM 38.8167 -80.1422 251° West 453 521 26,000  Level Indianapolis Center
Mon 09:42:16 PM 38.8139 -80.3028 269° West 450 518 26,000  Level Indianapolis Center
Mon 09:43:18 PM 38.8103 -80.4611 268° West 447 514 26,000  Level Indianapolis Center
Mon 09:44:19 PM 38.8044 -80.6192 267° West 444 511 26,000  Level Indianapolis Center
Mon 09:45:21 PM 38.7997 -80.7800 268° West 450 518 26,000  Level Indianapolis Center
Mon 09:46:22 PM 38.7953 -80.9381 268° West 447 514 26,000  Level Indianapolis Center
Mon 09:47:23 PM 38.7906 -81.0972 268° West 448 516 26,000  Level Indianapolis Center
Mon 09:48:25 PM 38.7847 -81.2558 267° West 447 514 26,000  Level Indianapolis Center
Mon 09:49:26 PM 38.7794 -81.4133 268° West 447 514 26,000  Level Indianapolis Center
Mon 09:50:28 PM 38.7717 -81.6036 267° West 447 514 26,000  Level Indianapolis Center
Mon 09:51:29 PM 38.7661 -81.7539 267° West 448 516 26,000  Level Indianapolis Center
Mon 09:52:30 PM 38.7594 -81.9097 267° West 445 512 26,000  Level Indianapolis Center
Mon 09:53:32 PM 38.7453 -82.0656 263° West 444 511 26,000  Level Indianapolis Center
Mon 09:54:33 PM 38.7044 -82.2150 251° West 442 509 26,000  Level Indianapolis Center
Mon 09:55:35 PM 38.6653 -82.3653 252° West 446 513 26,000 -488 Level Indianapolis Center
Mon 09:56:36 PM 38.6222 -82.5244 251° West 445 512 25,000 -984 Descending Indianapolis Center
Mon 09:57:37 PM 38.5750 -82.6964 251° West 439 505 24,000 -1,171 Descending Indianapolis Center
Mon 09:58:39 PM 38.5369 -82.8375 251° West 425 489 22,600 -1,415 Descending Indianapolis Center
Mon 09:59:40 PM 38.4997 -82.9744 251° West 411 473 21,100 -1,525 Descending Indianapolis Center
Mon 10:00:41 PM 38.4622 -83.1111 251° West 408 470 19,500 -1,512 Descending Indianapolis Center
Mon 10:01:43 PM 38.4256 -83.2444 251° West 402 463 18,000 -1,415 Descending Indianapolis Center
Mon 10:02:44 PM 38.3894 -83.3761 251° West 395 455 16,600 -1,415 Descending Indianapolis Center
Mon 10:03:46 PM 38.3964 -83.5050 274° West 378 435 15,100 -1,610 Descending Indianapolis Center
Mon 10:04:47 PM 38.4622 -83.6322 303° West 368 423 13,300 -1,623 Descending Indianapolis Center
Mon 10:05:48 PM 38.5172 -83.7392 303° West 361 415 11,800 -1,377 Descending Indianapolis Center
Mon 10:06:49 PM 38.5733 -83.8444 304° West 358 412 10,500 -878 Descending Indianapolis Center
Mon 10:07:51 PM 38.6264 -83.9500 303° West 355 409 10,000 -293 Descending Indianapolis Center
Mon 10:08:52 PM 38.6800 -84.0500 305° West 350 403 9,900 -49 Descending Indianapolis Center
Mon 10:09:53 PM 38.7394 -84.1481 308° West 345 397 9,900 -488 Level Indianapolis Center
Mon 10:10:55 PM 38.7917 -84.2147 315° West 286 329 8,900 -1,220 Descending Indianapolis Center
Mon 10:11:56 PM 38.8433 -84.2822 315° West 265 305 7,400 -984 Descending Indianapolis Center
Mon 10:12:57 PM 38.8944 -84.3475 315° West 258 297 6,900 -244 Descending Indianapolis Center
Mon 10:13:59 PM 38.9453 -84.4133 315° West 256 295 6,900  Level Indianapolis Center
Mon 10:15:00 PM 38.9939 -84.4778 314° West 249 287 6,900 -780 Level Indianapolis Center
Mon 10:16:02 PM 39.0678 -84.5158 338° Northwest 256 295 5,300 -1,659 Descending Indianapolis Center
Mon 10:17:03 PM 39.1400 -84.5211 357° North 258 297 3,500 -1,180 Descending Indianapolis Center
Mon 10:18:04 PM 39.2064 -84.5258 357° North 248 285 2,900 -244 Descending Indianapolis Center
Mon 10:19:06 PM 39.2619 -84.5369 351° North 221 254 3,000  Climbing Indianapolis Center
Mon 10:20:07 PM 39.2578 -84.6058 266° West 183 211 2,900 -49 Descending Indianapolis Center
Mon 10:21:09 PM 39.2175 -84.6422 215° Southwest 175 201 2,900 -49 Level Indianapolis Center
Mon 10:22:10 PM 39.1739 -84.6792 213° Southwest 178 205 2,800 -293 Descending Indianapolis Center
Mon 10:23:12 PM 39.1364 -84.6794 180° South 170 196 2,300 -732 Descending Indianapolis Center
Mon 10:24:13 PM 39.0833 -84.6833 183° South 129 148 1,300 -984 Descending Cincinnati TRACON
Mon 10:26:00 PM 39.0488 -84.6678 195° South  Level Estimated

Login

Don't have an account? Register now (free) for customized features, flight alerts, and more!